Time;durP1;ratioP1;P1;durP2;ratioP2;P2;SDS_P1;SDS_P2;PMS_P1;PMS_P2;Temp;Humidity;BMP_temperature;BMP_pressure;BME280_temperature;BME280_humidity;BME280_pressure;Samples;Min_cycle;Max_cycle;Signal;HPM_P1;HPM_P2
2023/03/21 00:00:36;;;;;;;12.63;6.15;;;7.80;99.90;;;;;;4695056;28;10001369;-70
2023/03/21 00:03:09;;;;;;;12.38;6.13;;;7.80;99.90;;;;;;5052566;28;20926;-70
2023/03/21 00:05:52;;;;;;;13.10;5.95;;;7.80;99.90;;;;;;5042523;28;20113;-71
2023/03/21 00:08:27;;;;;;;10.80;5.88;;;7.80;99.90;;;;;;5040834;28;20064;-70
2023/03/21 00:11:03;;;;;;;11.63;5.93;;;7.80;99.90;;;;;;5067341;28;20396;-70
2023/03/21 00:13:37;;;;;;;11.90;6.32;;;7.80;99.90;;;;;;5046070;28;20025;-70
2023/03/21 00:16:17;;;;;;;13.85;5.90;;;7.80;99.90;;;;;;5035934;28;20591;-71
2023/03/21 00:18:51;;;;;;;12.63;5.22;;;7.80;99.90;;;;;;5043124;28;20079;-71
2023/03/21 00:21:27;;;;;;;14.85;5.55;;;7.80;99.90;;;;;;5038184;28;20112;-70
2023/03/21 00:23:56;;;;;;;9.13;5.50;;;7.80;99.90;;;;;;5039880;28;20059;-70
2023/03/21 00:26:29;;;;;;;12.48;5.70;;;7.80;99.90;;;;;;5066888;28;20035;-71
2023/03/21 00:29:02;;;;;;;13.18;5.68;;;7.80;99.90;;;;;;5048342;28;20044;-71
2023/03/21 00:31:31;;;;;;;11.57;5.13;;;7.80;99.90;;;;;;5063628;28;20025;-70
2023/03/21 00:33:58;;;;;;;11.02;5.43;;;7.80;99.90;;;;;;5062480;28;20550;-70
2023/03/21 00:36:33;;;;;;;10.63;5.80;;;7.80;99.90;;;;;;5055574;28;20103;-70
2023/03/21 00:39:09;;;;;;;12.85;5.47;;;7.80;99.90;;;;;;5033829;28;20445;-70
2023/03/21 00:41:41;;;;;;;12.13;5.28;;;7.80;99.90;;;;;;5061309;28;20365;-70
2023/03/21 00:44:07;;;;;;;10.30;5.78;;;7.80;99.90;;;;;;5043882;28;20029;-70
2023/03/21 00:46:37;;;;;;;10.77;5.35;;;7.80;99.90;;;;;;5044881;28;20017;-70
2023/03/21 00:49:09;;;;;;;9.57;4.78;;;7.80;99.90;;;;;;5049176;28;20073;-71
2023/03/21 00:51:44;;;;;;;11.15;5.32;;;7.80;99.90;;;;;;5054017;28;20024;-71
2023/03/21 00:54:14;;;;;;;13.02;5.18;;;7.80;99.90;;;;;;5061518;28;20041;-70
2023/03/21 00:56:52;;;;;;;12.02;5.38;;;7.70;99.90;;;;;;5048576;28;20033;-71
2023/03/21 00:59:18;;;;;;;11.98;5.38;;;7.80;99.90;;;;;;5058800;28;20036;-71
2023/03/21 01:01:49;;;;;;;11.45;5.25;;;7.70;99.90;;;;;;5045483;28;20044;-71
2023/03/21 01:04:25;;;;;;;9.95;5.10;;;7.80;99.90;;;;;;5046605;28;20045;-71
2023/03/21 01:07:00;;;;;;;9.82;5.05;;;7.80;99.90;;;;;;5060400;28;20042;-70
2023/03/21 01:09:39;;;;;;;11.68;5.15;;;7.80;99.90;;;;;;5046768;28;20033;-70
2023/03/21 01:12:20;;;;;;;11.13;5.00;;;7.80;99.90;;;;;;5048708;28;20513;-70
2023/03/21 01:14:59;;;;;;;9.88;4.80;;;7.80;99.90;;;;;;5045162;28;20064;-70
2023/03/21 01:17:30;;;;;;;11.35;4.75;;;7.80;99.90;;;;;;5047229;28;20025;-70
2023/03/21 01:20:05;;;;;;;9.82;4.75;;;7.80;99.90;;;;;;5061329;28;20041;-71
2023/03/21 01:22:36;;;;;;;11.45;5.20;;;7.80;99.90;;;;;;5044916;28;20029;-70
2023/03/21 01:25:11;;;;;;;13.35;5.07;;;7.80;99.90;;;;;;5046768;28;20032;-71
2023/03/21 01:27:38;;;;;;;16.48;5.28;;;7.80;99.90;;;;;;5038664;28;20029;-71
2023/03/21 01:30:05;;;;;;;8.65;5.10;;;7.80;99.90;;;;;;5047563;28;20035;-71
2023/03/21 01:32:43;;;;;;;9.85;4.95;;;7.80;99.90;;;;;;5049329;28;20017;-70
2023/03/21 01:35:18;;;;;;;7.78;4.80;;;7.80;99.90;;;;;;5046318;28;20033;-70
2023/03/21 01:37:52;;;;;;;10.32;4.55;;;7.80;99.90;;;;;;5048119;28;20440;-70
2023/03/21 01:40:32;;;;;;;11.70;4.90;;;7.80;99.90;;;;;;5035160;28;20037;-70
2023/03/21 01:42:58;;;;;;;12.63;5.22;;;7.80;99.90;;;;;;5033469;28;20056;-70
2023/03/21 01:46:02;;;;;;;11.00;5.47;;;7.80;99.90;;;;;;5047868;28;20433;-70
2023/03/21 01:48:36;;;;;;;13.48;5.72;;;7.80;99.90;;;;;;5036991;28;20033;-70
2023/03/21 01:51:03;;;;;;;9.77;4.95;;;7.80;99.90;;;;;;5042026;28;20048;-71
2023/03/21 01:53:40;;;;;;;11.68;5.15;;;7.80;99.90;;;;;;5034446;28;20048;-70
2023/03/21 01:56:11;;;;;;;10.73;5.07;;;7.80;99.90;;;;;;5045835;28;20065;-71
2023/03/21 01:58:44;;;;;;;10.15;4.55;;;7.80;99.90;;;;;;5052503;28;20112;-70
2023/03/21 02:01:11;;;;;;;9.65;4.80;;;7.80;99.90;;;;;;5037000;28;20025;-71
2023/03/21 02:03:54;;;;;;;8.30;4.63;;;7.80;99.90;;;;;;5033048;28;20473;-70
2023/03/21 02:06:52;;;;;;;7.68;4.35;;;7.80;99.90;;;;;;5049576;28;20036;-71
2023/03/21 02:09:32;;;;;;;10.73;5.47;;;7.80;99.90;;;;;;5042361;28;20537;-70
2023/03/21 02:12:00;;;;;;;13.35;4.85;;;7.80;99.90;;;;;;5046379;28;20029;-70
2023/03/21 02:14:36;;;;;;;9.77;5.03;;;7.70;99.90;;;;;;5037469;28;20025;-71
2023/03/21 02:17:17;;;;;;;14.32;5.47;;;7.80;99.90;;;;;;5047324;28;20205;-71
2023/03/21 02:20:07;;;;;;;12.63;5.00;;;7.70;99.90;;;;;;5049321;28;20037;-70
2023/03/21 02:23:03;;;;;;;11.82;5.05;;;7.80;99.90;;;;;;5038763;28;20132;-70
2023/03/21 02:25:50;;;;;;;10.63;5.32;;;7.70;99.90;;;;;;5043645;28;20690;-70
2023/03/21 02:28:47;;;;;;;9.98;5.75;;;7.70;99.90;;;;;;5045951;28;20029;-70
2023/03/21 02:31:35;;;;;;;10.48;5.03;;;7.70;99.90;;;;;;5048917;28;20029;-71
2023/03/21 02:34:36;;;;;;;14.23;5.38;;;7.70;99.90;;;;;;5044273;28;20160;-70
2023/03/21 02:37:15;;;;;;;12.05;4.97;;;7.70;99.90;;;;;;5032560;28;20106;-71
2023/03/21 02:39:56;;;;;;;14.13;5.20;;;7.60;99.90;;;;;;5043754;28;20231;-70
2023/03/21 02:42:32;;;;;;;13.80;5.28;;;7.60;99.90;;;;;;5043435;28;20048;-70
2023/03/21 02:45:10;;;;;;;10.35;5.40;;;7.70;99.90;;;;;;5043053;28;20029;-71
2023/03/21 02:47:51;;;;;;;10.68;4.97;;;7.60;99.90;;;;;;5046300;28;20059;-71
2023/03/21 02:50:45;;;;;;;11.68;5.10;;;7.60;99.90;;;;;;5041947;28;20045;-71
2023/03/21 02:53:21;;;;;;;13.63;5.57;;;7.60;99.90;;;;;;5041651;28;20158;-70
2023/03/21 02:55:56;;;;;;;10.60;5.10;;;7.60;99.90;;;;;;5038575;28;20049;-71
2023/03/21 02:58:24;;;;;;;11.63;5.35;;;7.60;99.90;;;;;;5041925;28;20471;-70
2023/03/21 03:00:57;;;;;;;9.75;5.10;;;7.60;99.90;;;;;;5041496;28;20374;-70
2023/03/21 03:03:37;;;;;;;12.00;5.05;;;7.60;99.90;;;;;;5039782;28;20432;-71
2023/03/21 03:06:21;;;;;;;11.43;5.30;;;7.60;99.90;;;;;;5043100;28;20378;-70
2023/03/21 03:08:54;;;;;;;;;;;7.60;99.90;;;;;;5049341;28;20028;-71
2023/03/21 03:11:31;;;;;;;9.32;5.38;;;7.60;99.90;;;;;;5057965;28;19923;-71
2023/03/21 03:14:25;;;;;;;10.10;5.50;;;7.60;99.90;;;;;;5043200;28;20030;-70
2023/03/21 03:17:33;;;;;;;11.23;5.50;;;7.60;99.90;;;;;;5026547;28;20049;-71
2023/03/21 03:20:40;;;;;;;12.60;5.28;;;7.60;99.90;;;;;;5042252;28;20021;-71
2023/03/21 03:23:10;;;;;;;14.07;5.38;;;7.60;99.90;;;;;;5057871;28;20037;-71
2023/03/21 03:25:54;;;;;;;11.90;5.10;;;7.60;99.90;;;;;;5053222;28;20548;-71
2023/03/21 03:28:25;;;;;;;;;;;7.60;99.90;;;;;;5053222;28;20408;-71
2023/03/21 03:31:02;;;;;;;9.45;5.28;;;7.60;99.90;;;;;;5038556;28;19916;-71
2023/03/21 03:33:33;;;;;;;16.73;5.20;;;7.60;99.90;;;;;;5048197;28;20403;-70
2023/03/21 03:36:10;;;;;;;10.88;4.68;;;7.60;99.90;;;;;;5049580;28;20047;-70
2023/03/21 03:38:44;;;;;;;14.63;5.55;;;7.60;99.90;;;;;;5047634;28;20037;-70
2023/03/21 03:41:22;;;;;;;11.32;5.13;;;7.60;99.90;;;;;;5043704;28;20136;-70
2023/03/21 03:43:56;;;;;;;8.85;4.90;;;7.60;99.90;;;;;;5039098;28;20128;-70
2023/03/21 03:46:38;;;;;;;11.27;5.10;;;7.60;99.90;;;;;;5048421;28;20574;-70
2023/03/21 03:49:16;;;;;;;10.40;4.70;;;7.60;99.90;;;;;;5045140;28;20025;-70
2023/03/21 03:52:09;;;;;;;10.05;4.75;;;7.60;99.90;;;;;;5050783;28;20465;-70
2023/03/21 03:54:52;;;;;;;10.00;4.90;;;7.60;99.90;;;;;;5048197;28;20067;-70
2023/03/21 03:57:28;;;;;;;10.98;4.65;;;7.60;99.90;;;;;;5063406;28;20036;-70
2023/03/21 04:00:03;;;;;;;13.13;4.60;;;7.60;99.90;;;;;;5047333;28;20041;-71
2023/03/21 04:02:41;;;;;;;14.45;5.30;;;7.60;99.90;;;;;;5062243;28;20037;-70
2023/03/21 04:05:12;;;;;;;10.38;4.70;;;7.60;99.90;;;;;;5045450;28;20025;-70
2023/03/21 04:07:53;;;;;;;14.27;5.15;;;7.60;99.90;;;;;;5057931;28;20044;-71
2023/03/21 04:10:28;;;;;;;11.93;5.13;;;7.60;99.90;;;;;;5052633;28;20476;-71
2023/03/21 04:13:03;;;;;;;9.73;5.07;;;7.60;99.90;;;;;;5050335;28;20494;-71
2023/03/21 04:15:35;;;;;;;9.73;5.07;;;7.60;99.90;;;;;;5047283;28;20104;-70
2023/03/21 04:18:01;;;;;;;9.23;5.30;;;7.60;99.90;;;;;;5066535;28;20032;-70
2023/03/21 04:20:27;;;;;;;14.88;5.70;;;7.60;99.90;;;;;;5045787;28;20382;-71
2023/03/21 04:23:02;;;;;;;13.32;5.40;;;7.60;99.90;;;;;;5029427;28;20034;-71
2023/03/21 04:25:39;;;;;;;13.48;5.43;;;7.60;99.90;;;;;;5050259;28;20178;-71
2023/03/21 04:28:16;;;;;;;12.30;4.90;;;7.60;99.90;;;;;;5039954;28;20045;-71
2023/03/21 04:30:51;;;;;;;13.73;5.32;;;7.60;99.90;;;;;;5049861;28;20042;-71
2023/03/21 04:33:21;;;;;;;13.00;5.00;;;7.60;99.90;;;;;;5050879;28;20393;-71
2023/03/21 04:35:55;;;;;;;15.10;5.18;;;7.60;99.90;;;;;;5049519;28;20139;-70
2023/03/21 04:38:29;;;;;;;11.95;4.75;;;7.60;99.90;;;;;;5038913;28;20037;-70
2023/03/21 04:41:03;;;;;;;10.00;5.05;;;7.60;99.90;;;;;;5045549;28;20466;-70
2023/03/21 04:43:33;;;;;;;11.90;5.00;;;7.50;99.90;;;;;;5048217;28;20037;-70
2023/03/21 04:46:07;;;;;;;12.00;4.85;;;7.60;99.90;;;;;;5042922;28;20072;-70
2023/03/21 04:48:38;;;;;;;9.43;4.35;;;7.60;99.90;;;;;;5044901;28;20689;-70
2023/03/21 04:51:10;;;;;;;10.70;5.10;;;7.60;99.90;;;;;;5066226;28;20629;-71
2023/03/21 04:53:43;;;;;;;12.25;5.00;;;7.50;99.90;;;;;;5044585;28;20025;-70
2023/03/21 04:56:18;;;;;;;11.13;4.82;;;7.50;99.90;;;;;;5049562;28;20052;-70
2023/03/21 04:58:52;;;;;;;15.77;5.50;;;7.50;99.90;;;;;;5067678;28;20024;-71
2023/03/21 05:01:29;;;;;;;13.60;5.00;;;7.50;99.90;;;;;;5038940;28;20029;-70
2023/03/21 05:04:03;;;;;;;13.52;5.13;;;7.50;99.90;;;;;;5035037;28;20135;-71
2023/03/21 05:06:37;;;;;;;10.88;4.55;;;7.50;99.90;;;;;;5045565;28;20036;-71
2023/03/21 05:09:12;;;;;;;11.45;5.03;;;7.50;99.90;;;;;;5053641;28;20038;-70
2023/03/21 05:11:42;;;;;;;12.45;5.18;;;7.50;99.90;;;;;;5041090;28;20057;-71
2023/03/21 05:14:18;;;;;;;10.30;4.60;;;7.50;99.90;;;;;;5048961;28;20108;-71
2023/03/21 05:16:57;;;;;;;10.85;5.22;;;7.50;99.90;;;;;;5061626;28;20228;-71
2023/03/21 05:19:35;;;;;;;15.18;5.18;;;7.50;99.90;;;;;;5050829;28;20037;-70
2023/03/21 05:22:11;;;;;;;9.98;4.93;;;7.50;99.90;;;;;;5053489;28;20058;-70
2023/03/21 05:24:40;;;;;;;12.18;4.47;;;7.50;99.90;;;;;;5041399;28;20485;-70
2023/03/21 05:27:07;;;;;;;11.95;5.20;;;7.50;99.90;;;;;;5050006;28;20040;-71
2023/03/21 05:29:33;;;;;;;11.98;4.82;;;7.50;99.90;;;;;;5034567;28;20037;-70
2023/03/21 05:32:02;;;;;;;10.55;4.85;;;7.50;99.90;;;;;;5042378;28;20528;-70
2023/03/21 05:34:37;;;;;;;8.70;3.92;;;7.50;99.90;;;;;;5039654;28;20032;-70
2023/03/21 05:37:05;;;;;;;15.48;5.18;;;7.50;99.90;;;;;;5040514;28;20816;-71
2023/03/21 05:39:39;;;;;;;12.90;5.30;;;7.50;99.90;;;;;;5042149;28;20078;-70
2023/03/21 05:42:19;;;;;;;11.30;4.72;;;7.50;99.90;;;;;;5045799;28;20493;-70
2023/03/21 05:44:51;;;;;;;12.02;4.80;;;7.50;99.90;;;;;;5048855;28;20040;-70
2023/03/21 05:47:23;;;;;;;14.70;5.80;;;7.60;99.90;;;;;;5033542;28;20095;-70
2023/03/21 05:49:53;;;;;;;12.13;5.10;;;7.60;99.90;;;;;;5046475;28;20056;-70
2023/03/21 05:52:25;;;;;;;13.90;5.82;;;7.60;99.90;;;;;;5033321;28;20029;-71
2023/03/21 05:54:58;;;;;;;11.77;5.22;;;7.60;99.90;;;;;;5039949;28;20056;-71
2023/03/21 05:57:27;;;;;;;14.80;5.60;;;7.60;99.90;;;;;;5033491;28;20064;-71
2023/03/21 05:59:59;;;;;;;15.32;5.72;;;7.70;99.90;;;;;;5034317;28;20037;-71
2023/03/21 06:02:27;;;;;;;12.50;5.60;;;7.70;99.90;;;;;;5039935;28;20040;-70
2023/03/21 06:04:59;;;;;;;13.32;5.50;;;7.70;99.90;;;;;;5040792;28;20107;-70
2023/03/21 06:07:27;;;;;;;17.43;6.27;;;7.70;99.90;;;;;;5037346;28;20032;-70
2023/03/21 06:09:53;;;;;;;12.85;5.53;;;7.70;99.90;;;;;;5027930;28;20036;-70
2023/03/21 06:12:28;;;;;;;20.00;9.27;;;7.70;99.90;;;;;;5032122;28;20021;-70
2023/03/21 06:14:55;;;;;;;14.90;7.45;;;7.80;99.90;;;;;;5031101;28;20121;-70
2023/03/21 06:17:25;;;;;;;17.58;7.35;;;7.80;99.90;;;;;;5034103;28;20037;-70
2023/03/21 06:19:54;;;;;;;15.05;7.80;;;7.80;99.90;;;;;;5032651;28;20041;-70
2023/03/21 06:22:21;;;;;;;19.23;6.97;;;7.80;99.90;;;;;;5040583;28;20040;-70
2023/03/21 06:24:47;;;;;;;18.63;8.07;;;7.80;99.90;;;;;;5038162;28;20033;-70
2023/03/21 06:27:13;;;;;;;14.77;6.93;;;7.80;99.90;;;;;;5031669;28;20034;-71
2023/03/21 06:29:40;;;;;;;17.23;7.00;;;7.90;99.90;;;;;;5053265;28;20032;-71
2023/03/21 06:32:08;;;;;;;13.10;6.53;;;7.90;99.90;;;;;;5036601;28;22777;-70
2023/03/21 06:34:34;;;;;;;13.82;6.50;;;8.00;99.90;;;;;;5035616;28;20025;-71
2023/03/21 06:36:59;;;;;;;16.83;6.40;;;8.10;99.90;;;;;;5035352;28;20207;-71
2023/03/21 06:39:26;;;;;;;11.43;6.43;;;8.20;99.90;;;;;;5034450;28;20116;-71
2023/03/21 06:41:54;;;;;;;13.68;6.53;;;8.20;99.90;;;;;;5044502;28;20044;-71
2023/03/21 06:44:23;;;;;;;13.15;6.10;;;8.20;99.90;;;;;;5041502;28;20040;-71
2023/03/21 06:46:50;;;;;;;11.63;5.63;;;8.20;99.90;;;;;;5039627;28;20028;-71
2023/03/21 06:49:18;;;;;;;14.98;5.85;;;8.20;99.90;;;;;;5034257;28;22008;-71
2023/03/21 06:51:52;;;;;;;15.13;6.40;;;8.20;99.90;;;;;;5038360;28;20418;-70
2023/03/21 06:54:22;;;;;;;14.30;5.93;;;8.20;99.90;;;;;;5037328;28;20055;-71
2023/03/21 06:56:49;;;;;;;12.98;7.00;;;8.30;99.90;;;;;;5043180;28;20033;-71
2023/03/21 06:59:16;;;;;;;16.25;5.88;;;8.30;99.90;;;;;;5039479;28;20017;-71
2023/03/21 07:01:43;;;;;;;12.00;6.10;;;8.30;99.90;;;;;;5037455;28;20063;-70
2023/03/21 07:04:10;;;;;;;16.30;7.97;;;8.30;99.90;;;;;;5039219;28;20116;-71
2023/03/21 07:06:37;;;;;;;16.17;7.35;;;8.30;99.90;;;;;;5038899;28;20044;-70
2023/03/21 07:09:04;;;;;;;10.55;6.05;;;8.40;99.90;;;;;;5043143;28;20021;-70
2023/03/21 07:11:31;;;;;;;16.85;8.75;;;8.40;99.90;;;;;;5040745;28;20033;-70
2023/03/21 07:13:59;;;;;;;18.92;8.50;;;8.40;99.90;;;;;;5047248;28;20595;-71
2023/03/21 07:16:26;;;;;;;15.43;7.57;;;8.50;99.90;;;;;;5041574;28;20028;-71
2023/03/21 07:18:53;;;;;;;16.60;7.32;;;8.50;99.90;;;;;;5047853;28;20032;-71
2023/03/21 07:21:22;;;;;;;16.75;7.13;;;8.60;99.90;;;;;;5044130;28;20413;-70
2023/03/21 07:23:49;;;;;;;15.68;7.43;;;8.70;99.90;;;;;;5051853;28;20093;-70
2023/03/21 07:26:17;;;;;;;16.05;7.90;;;8.80;99.90;;;;;;5046336;28;20032;-70
2023/03/21 07:28:43;;;;;;;14.68;7.90;;;8.90;99.90;;;;;;5040692;28;20064;-71
2023/03/21 07:31:16;;;;;;;18.55;7.60;;;9.00;99.90;;;;;;5041278;28;20025;-70
2023/03/21 07:33:45;;;;;;;22.33;9.13;;;9.10;99.90;;;;;;5045653;28;20116;-70
2023/03/21 07:36:15;;;;;;;13.45;7.53;;;9.10;99.90;;;;;;5043174;28;20358;-71
2023/03/21 07:38:43;;;;;;;15.20;10.38;;;9.10;99.90;;;;;;5039348;28;21272;-70
2023/03/21 07:41:16;;;;;;;14.50;9.23;;;9.10;99.90;;;;;;5056450;28;20032;-71
2023/03/21 07:43:44;;;;;;;13.13;6.97;;;9.00;99.90;;;;;;5046240;28;20520;-71
2023/03/21 07:46:11;;;;;;;19.00;7.47;;;9.10;99.90;;;;;;5043250;28;20037;-71
2023/03/21 07:48:38;;;;;;;15.25;7.88;;;9.10;99.90;;;;;;5049127;28;20124;-71
2023/03/21 07:51:05;;;;;;;16.05;7.95;;;9.10;99.90;;;;;;5043452;28;20083;-71
2023/03/21 07:53:32;;;;;;;15.50;8.20;;;9.10;99.90;;;;;;5048442;28;20033;-72
2023/03/21 07:55:59;;;;;;;13.60;7.25;;;9.10;99.90;;;;;;5055686;28;20049;-72
2023/03/21 07:58:27;;;;;;;17.17;7.55;;;9.10;99.90;;;;;;5056499;28;20112;-71
2023/03/21 08:00:55;;;;;;;13.70;7.70;;;9.10;99.90;;;;;;5049339;28;20565;-71
2023/03/21 08:03:22;;;;;;;17.45;7.60;;;9.10;99.90;;;;;;5048459;28;20036;-71
2023/03/21 08:05:49;;;;;;;15.60;9.05;;;9.00;99.90;;;;;;5053844;28;20396;-71
2023/03/21 08:08:16;;;;;;;17.02;7.47;;;9.10;99.90;;;;;;5043581;28;20063;-71
2023/03/21 08:10:43;;;;;;;15.05;7.60;;;9.10;99.90;;;;;;5048453;28;20036;-71
2023/03/21 08:13:09;;;;;;;12.75;7.47;;;9.10;99.90;;;;;;5045402;28;20033;-71
2023/03/21 08:15:40;;;;;;;16.98;7.53;;;9.10;99.90;;;;;;5045274;28;20021;-71
2023/03/21 08:18:12;;;;;;;14.45;7.70;;;9.20;99.90;;;;;;5044994;28;20075;-71
2023/03/21 08:20:45;;;;;;;23.25;8.68;;;9.30;99.90;;;;;;5043962;28;20052;-71
2023/03/21 08:23:15;;;;;;;20.98;8.00;;;9.30;99.90;;;;;;5039077;28;20112;-71
2023/03/21 08:25:51;;;;;;;13.77;7.70;;;9.40;99.90;;;;;;5044622;28;20566;-71
2023/03/21 08:28:21;;;;;;;18.02;7.75;;;9.50;99.90;;;;;;5046114;28;20024;-71
2023/03/21 08:30:55;;;;;;;15.73;8.13;;;9.70;99.90;;;;;;5038968;28;20044;-71
2023/03/21 08:33:22;;;;;;;17.52;7.68;;;9.80;99.90;;;;;;5040988;28;20503;-71
2023/03/21 08:35:58;;;;;;;15.88;7.60;;;9.90;99.90;;;;;;5044248;28;20037;-71
2023/03/21 08:38:24;;;;;;;17.40;7.93;;;10.00;99.90;;;;;;5047350;28;20087;-71
2023/03/21 08:40:55;;;;;;;14.02;7.45;;;10.10;99.90;;;;;;5061125;28;20604;-70
2023/03/21 08:43:24;;;;;;;14.73;7.90;;;10.30;99.90;;;;;;5041809;28;20049;-70
2023/03/21 08:46:02;;;;;;;15.40;7.35;;;10.40;99.90;;;;;;5055924;28;20477;-72
2023/03/21 08:48:28;;;;;;;17.15;8.23;;;;;;;;;;5059800;28;20036;-70
2023/03/21 08:50:54;;;;;;;14.85;7.32;;;10.60;99.90;;;;;;5031155;28;20061;-72
2023/03/21 08:53:27;;;;;;;17.67;7.53;;;10.70;99.90;;;;;;5044220;28;20059;-71
2023/03/21 08:55:59;;;;;;;19.17;7.38;;;10.80;99.90;;;;;;5057817;28;20529;-70
2023/03/21 08:58:30;;;;;;;18.23;7.65;;;10.80;99.90;;;;;;5053364;28;20040;-71
2023/03/21 09:00:57;;;;;;;17.58;8.02;;;;;;;;;;5049839;28;20177;-71
2023/03/21 09:03:32;;;;;;;13.23;7.43;;;10.90;99.90;;;;;;5053129;28;20036;-71
2023/03/21 09:06:03;;;;;;;18.95;7.72;;;10.90;99.90;;;;;;5044434;28;20033;-71
2023/03/21 09:08:32;;;;;;;15.70;7.55;;;11.00;99.90;;;;;;5055723;28;20045;-71
2023/03/21 09:11:00;;;;;;;18.20;7.72;;;11.10;99.90;;;;;;5042320;28;20082;-71
2023/03/21 09:13:29;;;;;;;20.13;8.32;;;11.10;99.90;;;;;;5039517;28;20021;-71
2023/03/21 09:16:00;;;;;;;14.45;7.63;;;11.10;99.90;;;;;;5060423;28;20029;-71
2023/03/21 09:18:47;;;;;;;15.00;8.50;;;11.20;99.90;;;;;;5058013;28;20033;-71
2023/03/21 09:21:21;;;;;;;20.23;8.50;;;11.30;99.90;;;;;;5063153;28;20038;-71
2023/03/21 09:23:50;;;;;;;17.55;8.55;;;11.60;99.90;;;;;;5043501;28;20029;-71
2023/03/21 09:26:22;;;;;;;21.83;8.10;;;;;;;;;;5051406;28;20044;-71
2023/03/21 09:28:51;;;;;;;17.93;7.87;;;;;;;;;;5056792;28;20496;-72
2023/03/21 09:31:24;;;;;;;18.60;8.70;;;;;;;;;;5049016;28;20397;-72
2023/03/21 09:33:55;;;;;;;16.92;8.40;;;;;;;;;;5051076;28;20052;-72
2023/03/21 09:36:26;;;;;;;15.48;8.43;;;12.60;99.90;;;;;;5050995;28;20267;-71
2023/03/21 09:38:56;;;;;;;18.67;8.57;;;12.60;99.90;;;;;;5058135;28;20029;-71
2023/03/21 09:41:48;;;;;;;16.77;8.45;;;12.50;99.90;;;;;;5058635;28;20033;-72
2023/03/21 09:44:25;;;;;;;21.52;10.73;;;;;;;;;;5041537;28;20090;-71
2023/03/21 09:47:19;;;;;;;21.63;10.10;;;12.40;99.90;;;;;;5051001;28;20024;-71
2023/03/21 09:50:02;;;;;;;16.48;8.00;;;12.20;99.90;;;;;;5041862;28;20550;-71
2023/03/21 09:52:57;;;;;;;17.00;8.93;;;12.20;99.90;;;;;;5044235;28;20025;-71
2023/03/21 09:55:34;;;;;;;16.65;8.43;;;12.20;99.90;;;;;;5050660;28;20045;-71
2023/03/21 09:58:12;;;;;;;19.48;8.55;;;12.20;99.90;;;;;;5052674;28;20122;-71
2023/03/21 10:00:45;;;;;;;21.63;9.07;;;12.20;99.90;;;;;;5051105;28;20085;-71
2023/03/21 10:03:26;;;;;;;20.38;10.23;;;12.30;99.90;;;;;;5034625;28;20041;-71
2023/03/21 10:06:00;;;;;;;19.17;8.35;;;12.30;99.90;;;;;;5046564;28;20028;-72
2023/03/21 10:08:51;;;;;;;17.80;8.20;;;12.20;99.90;;;;;;5047224;28;20024;-72
2023/03/21 10:11:28;;;;;;;15.10;8.25;;;12.20;99.90;;;;;;5052678;28;20033;-71
2023/03/21 10:14:01;;;;;;;16.95;8.10;;;12.20;99.90;;;;;;5043326;28;20408;-71
2023/03/21 10:16:47;;;;;;;19.13;8.48;;;12.20;99.90;;;;;;5060163;28;20024;-71
2023/03/21 10:19:22;;;;;;;19.45;9.50;;;12.30;99.90;;;;;;5054880;28;20107;-71
2023/03/21 10:21:56;;;;;;;16.27;8.68;;;12.40;99.90;;;;;;5048696;28;20217;-71
2023/03/21 10:24:31;;;;;;;23.98;9.02;;;12.40;99.90;;;;;;5039323;28;20384;-71
2023/03/21 10:26:58;;;;;;;17.13;8.35;;;12.40;99.90;;;;;;5062922;28;20025;-73
2023/03/21 10:29:35;;;;;;;20.58;8.63;;;12.50;99.90;;;;;;5048848;28;20394;-72
2023/03/21 10:32:08;;;;;;;21.23;9.10;;;12.50;99.90;;;;;;5056982;28;20032;-72
2023/03/21 10:34:43;;;;;;;16.08;7.75;;;12.50;99.90;;;;;;5036486;28;20096;-73
2023/03/21 10:37:18;;;;;;;14.07;6.25;;;12.60;99.90;;;;;;5053597;28;20048;-72
2023/03/21 10:39:50;;;;;;;13.65;6.47;;;12.50;99.90;;;;;;5048400;28;20417;-72
2023/03/21 10:42:26;;;;;;;17.92;6.28;;;12.40;99.90;;;;;;5051495;28;20456;-72
2023/03/21 10:44:58;;;;;;;15.25;7.25;;;12.40;99.90;;;;;;5051193;28;20040;-72
2023/03/21 10:47:29;;;;;;;15.20;6.80;;;12.50;99.90;;;;;;5058399;28;20516;-72
2023/03/21 10:50:06;;;;;;;17.77;6.90;;;12.50;99.90;;;;;;5050006;28;20124;-72
2023/03/21 10:52:37;;;;;;;16.33;7.30;;;12.50;99.90;;;;;;5046767;28;20021;-72
2023/03/21 10:55:22;;;;;;;16.63;7.07;;;12.50;99.90;;;;;;5058322;28;20048;-72
2023/03/21 10:57:59;;;;;;;15.85;7.22;;;12.50;99.90;;;;;;5044139;28;20388;-72
2023/03/21 11:00:35;;;;;;;19.85;7.07;;;12.50;99.90;;;;;;5049275;28;20082;-72
2023/03/21 11:03:19;;;;;;;15.88;7.07;;;12.50;99.90;;;;;;5055512;28;20064;-72
2023/03/21 11:05:48;;;;;;;17.88;6.88;;;12.50;99.90;;;;;;5047278;28;20028;-72
2023/03/21 11:08:29;;;;;;;14.00;7.07;;;12.50;99.90;;;;;;5053967;28;20059;-72
2023/03/21 11:11:02;;;;;;;19.27;7.90;;;12.50;99.90;;;;;;5054276;28;20378;-72
2023/03/21 11:13:40;;;;;;;;;;;12.50;99.90;;;;;;5046242;28;20032;-72
2023/03/21 11:16:39;;;;;;;16.38;7.40;;;12.40;99.90;;;;;;5059433;28;19909;-72
2023/03/21 11:19:19;;;;;;;20.63;10.13;;;12.40;99.90;;;;;;5052270;28;20032;-72
2023/03/21 11:21:53;;;;;;;17.40;8.73;;;12.40;99.90;;;;;;5057393;28;20028;-72
2023/03/21 11:24:20;;;;;;;21.83;8.80;;;12.30;99.90;;;;;;5056068;28;20021;-72
2023/03/21 11:26:51;;;;;;;16.73;7.70;;;12.20;99.90;;;;;;5061798;28;20477;-72
2023/03/21 11:29:32;;;;;;;15.65;8.07;;;12.20;99.90;;;;;;5044550;28;20028;-72
2023/03/21 11:32:22;;;;;;;17.45;7.90;;;12.10;99.90;;;;;;5037493;28;20072;-74
2023/03/21 11:35:03;;;;;;;16.50;8.13;;;11.90;99.90;;;;;;5050713;28;20029;-74
2023/03/21 11:37:44;;;;;;;18.83;9.68;;;11.90;99.90;;;;;;5051156;28;20029;-74
2023/03/21 11:40:23;;;;;;;22.75;9.63;;;11.70;99.90;;;;;;5049736;28;20064;-74
2023/03/21 11:42:58;;;;;;;20.48;8.98;;;11.60;99.90;;;;;;5050545;28;20041;-74
2023/03/21 11:45:34;;;;;;;22.30;9.82;;;11.60;99.90;;;;;;5046879;28;20120;-74
2023/03/21 11:48:07;;;;;;;25.33;10.15;;;11.50;99.90;;;;;;5027473;28;20045;-74
2023/03/21 11:50:38;;;;;;;19.80;10.10;;;11.50;99.90;;;;;;5050766;28;20016;-74
2023/03/21 11:53:34;;;;;;;19.48;8.73;;;11.50;99.90;;;;;;5051638;28;20501;-74
2023/03/21 11:56:11;;;;;;;23.23;10.07;;;11.50;99.90;;;;;;5043957;28;21138;-75
2023/03/21 11:58:51;;;;;;;20.42;9.70;;;11.60;99.90;;;;;;5060076;28;20058;-74
2023/03/21 12:01:34;;;;;;;20.25;11.52;;;11.60;99.90;;;;;;5048449;28;20058;-73
2023/03/21 12:04:18;;;;;;;27.08;14.80;;;11.60;99.90;;;;;;5043624;28;20098;-74
2023/03/21 12:07:02;;;;;;;22.45;14.02;;;11.50;99.90;;;;;;5037287;28;20444;-74
2023/03/21 12:09:44;;;;;;;23.95;11.43;;;11.50;99.90;;;;;;5043814;28;20495;-74
2023/03/21 12:12:32;;;;;;;17.73;9.98;;;11.50;99.90;;;;;;5052864;28;20044;-74
2023/03/21 12:15:28;;;;;;;22.45;9.60;;;11.40;99.90;;;;;;5047710;28;20039;-74
2023/03/21 12:18:26;;;;;;;21.30;8.68;;;11.40;99.90;;;;;;5038393;28;20045;-74
2023/03/21 12:21:06;;;;;;;20.45;9.25;;;11.40;99.90;;;;;;5056081;28;20636;-74
2023/03/21 12:23:47;;;;;;;19.23;7.95;;;11.40;99.90;;;;;;5048495;28;20124;-74
2023/03/21 12:26:37;;;;;;;16.38;7.88;;;11.40;99.90;;;;;;5043706;28;20032;-74
2023/03/21 12:29:35;;;;;;;15.07;7.97;;;11.40;99.90;;;;;;5049214;28;20024;-73
2023/03/21 12:32:20;;;;;;;17.65;8.25;;;11.30;99.90;;;;;;5055666;28;20036;-73
2023/03/21 12:35:08;;;;;;;13.27;7.78;;;11.30;99.90;;;;;;5043093;28;20107;-73
2023/03/21 12:38:07;;;;;;;13.43;8.40;;;11.30;99.90;;;;;;5043443;28;20511;-73
2023/03/21 12:40:56;;;;;;;12.75;7.97;;;11.30;99.90;;;;;;5041474;28;20027;-73
2023/03/21 12:43:28;;;;;;;16.20;8.35;;;11.20;99.90;;;;;;5049241;28;20052;-73
2023/03/21 12:46:00;;;;;;;15.60;7.80;;;11.10;99.90;;;;;;5042066;28;20112;-73
2023/03/21 12:48:40;;;;;;;16.42;8.50;;;11.00;99.90;;;;;;5048808;28;20051;-73
2023/03/21 12:51:14;;;;;;;17.67;8.68;;;11.00;99.90;;;;;;4692332;28;10000146;-72
2023/03/21 12:54:08;;;;;;;18.85;8.40;;;10.90;99.90;;;;;;5044279;28;20447;-73
2023/03/21 12:56:51;;;;;;;18.20;9.15;;;10.90;99.90;;;;;;4999385;28;20045;-71
2023/03/21 12:59:30;;;;;;;18.35;8.90;;;10.80;99.90;;;;;;4993327;28;20022;-72
2023/03/21 13:02:04;;;;;;;19.13;9.48;;;10.80;99.90;;;;;;4990120;28;20030;-71
2023/03/21 13:04:38;;;;;;;17.40;9.68;;;10.70;99.90;;;;;;4994880;28;20084;-72
2023/03/21 13:07:17;;;;;;;21.15;10.13;;;10.80;99.90;;;;;;4991316;28;20038;-72
2023/03/21 13:09:50;;;;;;;17.98;10.18;;;10.70;99.90;;;;;;4998778;28;20497;-71
2023/03/21 13:12:18;;;;;;;;;;;10.70;99.90;;;;;;4998363;28;20757;-72
2023/03/21 13:15:06;;;;;;;17.33;10.25;;;10.60;99.90;;;;;;4989978;28;19956;-71
2023/03/21 13:17:50;;;;;;;21.50;10.13;;;10.60;99.90;;;;;;4990218;28;20414;-71
2023/03/21 13:20:24;;;;;;;;;;;10.60;99.90;;;;;;4998995;28;20026;-72
2023/03/21 13:22:49;;;;;;;21.02;11.05;;;10.60;99.90;;;;;;4997421;28;19913;-71
2023/03/21 13:25:21;;;;;;;19.10;10.90;;;10.50;99.90;;;;;;4991525;28;20557;-72
2023/03/21 13:27:52;;;;;;;22.17;11.45;;;10.50;99.90;;;;;;4998924;28;20509;-71